SAS486 ENGM-ESSA
Flight info
| Callsign | SAS486 |
|---|---|
| Flight time | 0h 39m |
| Altitude | 27000 |
| Route | MASEV Z183 LEGPO DCT ELTOK |
| Aircraft | A320/M-SDE3FGHIRWY/LB1 |
Departure
| Time | 2026-05-07 16:05 |
|---|---|
| Airport | Oslo-Gardermoen International Airport (ENGM) |
Arrival
| Time | 2026-05-07 16:44 |
|---|---|
| Airport | Stockholm-Arlanda Airport (ESSA) |
| Time | Latitude | Longitude | Altitude | Speed | Heading |
|---|---|---|---|---|---|
| 2026-05-07 15:40 | 60.19630 | 11.09961 | 682 ft | 0 kts | 106° |
| 2026-05-07 15:56 | 60.19632 | 11.09948 | 681 ft | 3 kts | 106° |
| 2026-05-07 15:56 | 60.19638 | 11.09908 | 676 ft | 3 kts | 106° |
| 2026-05-07 15:57 | 60.19643 | 11.09869 | 680 ft | 3 kts | 105° |
| 2026-05-07 15:57 | 60.19649 | 11.09829 | 680 ft | 3 kts | 104° |
| 2026-05-07 15:57 | 60.19653 | 11.09789 | 679 ft | 3 kts | 100° |
| 2026-05-07 15:57 | 60.19655 | 11.09748 | 681 ft | 3 kts | 81° |
| 2026-05-07 15:58 | 60.19649 | 11.09708 | 676 ft | 3 kts | 71° |
| 2026-05-07 15:58 | 60.19649 | 11.09707 | 677 ft | 0 kts | 71° |
| 2026-05-07 15:59 | 60.19649 | 11.09708 | 676 ft | 1 kts | 71° |
| 2026-05-07 15:59 | 60.19658 | 11.09730 | 681 ft | 4 kts | 44° |
| 2026-05-07 15:59 | 60.19705 | 11.09765 | 679 ft | 10 kts | 16° |
| 2026-05-07 16:00 | 60.19791 | 11.09816 | 681 ft | 16 kts | 16° |
| 2026-05-07 16:00 | 60.19910 | 11.09885 | 682 ft | 19 kts | 16° |
| 2026-05-07 16:00 | 60.20013 | 11.09944 | 683 ft | 15 kts | 13° |
| 2026-05-07 16:00 | 60.20075 | 11.09818 | 683 ft | 15 kts | 285° |
| 2026-05-07 16:01 | 60.20109 | 11.09577 | 683 ft | 21 kts | 285° |
| 2026-05-07 16:01 | 60.20154 | 11.09268 | 681 ft | 24 kts | 286° |
| 2026-05-07 16:01 | 60.20200 | 11.08966 | 677 ft | 19 kts | 299° |
| 2026-05-07 16:01 | 60.20258 | 11.08953 | 679 ft | 8 kts | 17° |
| 2026-05-07 16:02 | 60.20330 | 11.08993 | 679 ft | 14 kts | 16° |
| 2026-05-07 16:02 | 60.20443 | 11.09059 | 674 ft | 20 kts | 16° |
| 2026-05-07 16:02 | 60.20590 | 11.09145 | 679 ft | 24 kts | 16° |
| 2026-05-07 16:02 | 60.20768 | 11.09245 | 682 ft | 28 kts | 15° |
| 2026-05-07 16:03 | 60.20965 | 11.09361 | 684 ft | 30 kts | 16° |
| 2026-05-07 16:03 | 60.21175 | 11.09480 | 681 ft | 32 kts | 17° |
| 2026-05-07 16:03 | 60.21374 | 11.09597 | 682 ft | 28 kts | 15° |
| 2026-05-07 16:03 | 60.21531 | 11.09584 | 684 ft | 21 kts | 307° |
| 2026-05-07 16:04 | 60.21572 | 11.09319 | 684 ft | 17 kts | 287° |
| 2026-05-07 16:04 | 60.21546 | 11.09136 | 684 ft | 14 kts | 206° |
| 2026-05-07 16:04 | 60.21427 | 11.09060 | 682 ft | 29 kts | 196° |
| 2026-05-07 16:04 | 60.21005 | 11.08816 | 679 ft | 95 kts | 195° |
| 2026-05-07 16:05 | 60.20198 | 11.08351 | 676 ft | 144 kts | 196° |
| 2026-05-07 16:05 | 60.19112 | 11.07730 | 796 ft | 171 kts | 196° |
| 2026-05-07 16:05 | 60.17993 | 11.07080 | 1490 ft | 165 kts | 198° |
| 2026-05-07 16:05 | 60.16918 | 11.06254 | 2091 ft | 168 kts | 215° |
| 2026-05-07 16:06 | 60.16093 | 11.04512 | 2522 ft | 181 kts | 241° |
| 2026-05-07 16:06 | 60.15618 | 11.02034 | 2821 ft | 202 kts | 250° |
| 2026-05-07 16:06 | 60.15065 | 10.99289 | 3144 ft | 222 kts | 247° |
| 2026-05-07 16:06 | 60.14456 | 10.96313 | 3631 ft | 236 kts | 255° |
| 2026-05-07 16:07 | 60.14357 | 10.93027 | 4362 ft | 240 kts | 278° |
| 2026-05-07 16:07 | 60.14675 | 10.89735 | 5139 ft | 244 kts | 287° |
| 2026-05-07 16:07 | 60.15529 | 10.86638 | 5666 ft | 262 kts | 307° |
| 2026-05-07 16:07 | 60.16742 | 10.83865 | 6503 ft | 266 kts | 314° |
| 2026-05-07 16:08 | 60.18079 | 10.81327 | 7334 ft | 270 kts | 319° |
| 2026-05-07 16:08 | 60.19602 | 10.79107 | 8232 ft | 272 kts | 328° |
| 2026-05-07 16:08 | 60.21325 | 10.77496 | 9101 ft | 275 kts | 340° |
| 2026-05-07 16:08 | 60.23208 | 10.76678 | 9966 ft | 280 kts | 352° |
| 2026-05-07 16:09 | 60.25174 | 10.76723 | 10659 ft | 290 kts | 4° |
| 2026-05-07 16:09 | 60.27220 | 10.77702 | 10876 ft | 316 kts | 18° |
| 2026-05-07 16:09 | 60.29241 | 10.79854 | 11029 ft | 342 kts | 33° |
| 2026-05-07 16:09 | 60.31007 | 10.83216 | 11532 ft | 356 kts | 50° |
| 2026-05-07 16:10 | 60.32306 | 10.87525 | 12146 ft | 364 kts | 65° |
| 2026-05-07 16:10 | 60.32993 | 10.92477 | 12796 ft | 371 kts | 82° |
| 2026-05-07 16:10 | 60.32960 | 10.97696 | 13420 ft | 375 kts | 99° |
| 2026-05-07 16:10 | 60.32446 | 11.02884 | 14044 ft | 379 kts | 102° |
| 2026-05-07 16:11 | 60.31943 | 11.08145 | 14591 ft | 384 kts | 101° |
| 2026-05-07 16:11 | 60.31458 | 11.13475 | 15136 ft | 389 kts | 101° |
| 2026-05-07 16:11 | 60.30975 | 11.18873 | 15658 ft | 393 kts | 101° |
| 2026-05-07 16:11 | 60.30483 | 11.24336 | 16182 ft | 398 kts | 101° |
| 2026-05-07 16:12 | 60.29977 | 11.29862 | 16704 ft | 403 kts | 101° |
| 2026-05-07 16:12 | 60.29456 | 11.35454 | 17251 ft | 408 kts | 101° |
| 2026-05-07 16:12 | 60.28924 | 11.41111 | 17795 ft | 413 kts | 101° |
| 2026-05-07 16:12 | 60.28386 | 11.46769 | 18331 ft | 418 kts | 101° |
| 2026-05-07 16:13 | 60.27832 | 11.52557 | 18822 ft | 423 kts | 101° |
| 2026-05-07 16:13 | 60.27269 | 11.58404 | 19337 ft | 427 kts | 101° |
| 2026-05-07 16:13 | 60.26697 | 11.64318 | 19872 ft | 431 kts | 101° |
| 2026-05-07 16:13 | 60.26121 | 11.70259 | 20380 ft | 436 kts | 101° |
| 2026-05-07 16:14 | 60.25535 | 11.76291 | 20866 ft | 440 kts | 101° |
| 2026-05-07 16:14 | 60.24945 | 11.82368 | 21366 ft | 444 kts | 101° |
| 2026-05-07 16:14 | 60.24541 | 11.86495 | 21679 ft | 447 kts | 101° |
| 2026-05-07 16:14 | 60.23740 | 11.94667 | 22296 ft | 452 kts | 101° |
| 2026-05-07 16:15 | 60.23127 | 12.00897 | 22743 ft | 456 kts | 101° |
| 2026-05-07 16:15 | 60.22505 | 12.07175 | 23183 ft | 459 kts | 101° |
| 2026-05-07 16:15 | 60.21874 | 12.13501 | 23605 ft | 463 kts | 101° |
| 2026-05-07 16:15 | 60.21232 | 12.19880 | 23960 ft | 467 kts | 101° |
| 2026-05-07 16:16 | 60.20802 | 12.24133 | 24191 ft | 469 kts | 101° |
| 2026-05-07 16:16 | 60.20146 | 12.30580 | 24546 ft | 472 kts | 101° |
| 2026-05-07 16:16 | 60.19483 | 12.37065 | 24888 ft | 475 kts | 101° |
| 2026-05-07 16:16 | 60.18812 | 12.43587 | 25221 ft | 478 kts | 101° |
| 2026-05-07 16:17 | 60.18134 | 12.50131 | 25565 ft | 481 kts | 101° |
| 2026-05-07 16:17 | 60.17476 | 12.56752 | 25899 ft | 484 kts | 99° |
| 2026-05-07 16:17 | 60.16952 | 12.63427 | 26235 ft | 486 kts | 97° |
| 2026-05-07 16:17 | 60.16535 | 12.70185 | 26565 ft | 489 kts | 95° |
| 2026-05-07 16:18 | 60.16178 | 12.76990 | 26893 ft | 492 kts | 95° |
| 2026-05-07 16:18 | 60.15831 | 12.83837 | 27061 ft | 494 kts | 95° |
| 2026-05-07 16:18 | 60.15457 | 12.90717 | 27087 ft | 497 kts | 96° |
| 2026-05-07 16:18 | 60.15042 | 12.97604 | 27083 ft | 497 kts | 96° |
| 2026-05-07 16:19 | 60.14593 | 13.04483 | 27083 ft | 497 kts | 97° |
| 2026-05-07 16:19 | 60.14121 | 13.11357 | 27082 ft | 497 kts | 97° |
| 2026-05-07 16:19 | 60.13640 | 13.18227 | 27084 ft | 497 kts | 97° |
| 2026-05-07 16:19 | 60.13159 | 13.25097 | 27084 ft | 497 kts | 97° |
| 2026-05-07 16:20 | 60.12686 | 13.31984 | 27087 ft | 497 kts | 97° |
| 2026-05-07 16:20 | 60.12220 | 13.38840 | 27083 ft | 497 kts | 97° |
| 2026-05-07 16:20 | 60.11754 | 13.45710 | 27073 ft | 497 kts | 97° |
| 2026-05-07 16:20 | 60.11285 | 13.52575 | 27078 ft | 497 kts | 97° |
| 2026-05-07 16:21 | 60.10812 | 13.59434 | 27081 ft | 497 kts | 97° |
| 2026-05-07 16:21 | 60.10331 | 13.66288 | 27081 ft | 496 kts | 97° |
| 2026-05-07 16:21 | 60.09842 | 13.73137 | 27083 ft | 496 kts | 97° |
| 2026-05-07 16:21 | 60.09350 | 13.79998 | 27085 ft | 496 kts | 97° |
| 2026-05-07 16:22 | 60.08858 | 13.86827 | 27086 ft | 496 kts | 97° |
| 2026-05-07 16:22 | 60.08363 | 13.93668 | 27086 ft | 496 kts | 97° |
| 2026-05-07 16:22 | 60.07865 | 14.00506 | 27088 ft | 496 kts | 97° |
| 2026-05-07 16:22 | 60.07360 | 14.07263 | 27092 ft | 496 kts | 98° |
| 2026-05-07 16:23 | 60.06830 | 14.14088 | 27091 ft | 496 kts | 98° |
| 2026-05-07 16:23 | 60.06288 | 14.20910 | 27090 ft | 496 kts | 98° |
| 2026-05-07 16:23 | 60.05736 | 14.27729 | 27089 ft | 496 kts | 98° |
| 2026-05-07 16:23 | 60.05177 | 14.34546 | 27089 ft | 496 kts | 99° |
| 2026-05-07 16:24 | 60.04616 | 14.41361 | 27090 ft | 496 kts | 99° |
| 2026-05-07 16:24 | 60.04052 | 14.48173 | 27090 ft | 496 kts | 99° |
| 2026-05-07 16:24 | 60.03489 | 14.54985 | 27090 ft | 496 kts | 99° |
| 2026-05-07 16:24 | 60.02925 | 14.61796 | 27089 ft | 496 kts | 99° |
| 2026-05-07 16:25 | 60.02358 | 14.68605 | 27087 ft | 496 kts | 99° |
| 2026-05-07 16:25 | 60.01786 | 14.75412 | 27092 ft | 496 kts | 99° |
| 2026-05-07 16:25 | 60.01209 | 14.82200 | 27093 ft | 496 kts | 99° |
| 2026-05-07 16:25 | 60.00627 | 14.88998 | 27094 ft | 496 kts | 99° |
| 2026-05-07 16:26 | 60.00042 | 14.95809 | 27097 ft | 496 kts | 99° |
| 2026-05-07 16:26 | 59.99457 | 15.02587 | 27092 ft | 496 kts | 99° |
| 2026-05-07 16:26 | 59.98863 | 15.09392 | 27092 ft | 496 kts | 99° |
| 2026-05-07 16:26 | 59.98269 | 15.16180 | 27091 ft | 496 kts | 99° |
| 2026-05-07 16:27 | 59.97684 | 15.22967 | 27100 ft | 496 kts | 99° |
| 2026-05-07 16:27 | 59.97138 | 15.29759 | 27100 ft | 495 kts | 98° |
| 2026-05-07 16:27 | 59.96632 | 15.36562 | 27096 ft | 495 kts | 97° |
| 2026-05-07 16:27 | 59.96131 | 15.43366 | 26988 ft | 494 kts | 97° |
| 2026-05-07 16:28 | 59.95622 | 15.50065 | 26774 ft | 481 kts | 98° |
| 2026-05-07 16:28 | 59.95104 | 15.56565 | 26371 ft | 473 kts | 98° |
| 2026-05-07 16:28 | 59.94569 | 15.63030 | 25784 ft | 471 kts | 99° |
| 2026-05-07 16:28 | 59.94022 | 15.69441 | 25235 ft | 467 kts | 99° |
| 2026-05-07 16:29 | 59.93474 | 15.75791 | 24696 ft | 461 kts | 99° |
| 2026-05-07 16:29 | 59.92935 | 15.82047 | 23875 ft | 455 kts | 99° |
| 2026-05-07 16:29 | 59.92401 | 15.88266 | 23164 ft | 453 kts | 99° |
| 2026-05-07 16:29 | 59.91874 | 15.94413 | 22635 ft | 446 kts | 99° |
| 2026-05-07 16:30 | 59.91355 | 16.00471 | 21965 ft | 441 kts | 99° |
| 2026-05-07 16:30 | 59.90841 | 16.06446 | 21346 ft | 436 kts | 100° |
| 2026-05-07 16:30 | 59.90329 | 16.12358 | 20724 ft | 430 kts | 100° |
| 2026-05-07 16:30 | 59.89826 | 16.18119 | 20111 ft | 425 kts | 100° |
| 2026-05-07 16:31 | 59.89317 | 16.23884 | 19519 ft | 420 kts | 100° |
| 2026-05-07 16:31 | 59.88811 | 16.29570 | 18934 ft | 414 kts | 100° |
| 2026-05-07 16:31 | 59.88312 | 16.35175 | 18366 ft | 408 kts | 100° |
| 2026-05-07 16:31 | 59.87821 | 16.40687 | 17729 ft | 401 kts | 100° |
| 2026-05-07 16:32 | 59.87331 | 16.46118 | 17111 ft | 394 kts | 100° |
| 2026-05-07 16:32 | 59.86848 | 16.51441 | 16514 ft | 387 kts | 100° |
| 2026-05-07 16:32 | 59.86370 | 16.56673 | 15945 ft | 381 kts | 100° |
| 2026-05-07 16:32 | 59.85899 | 16.61809 | 15378 ft | 375 kts | 100° |
| 2026-05-07 16:33 | 59.85434 | 16.66877 | 14823 ft | 370 kts | 100° |
| 2026-05-07 16:33 | 59.84975 | 16.71872 | 14276 ft | 364 kts | 100° |
| 2026-05-07 16:33 | 59.84520 | 16.76809 | 13721 ft | 360 kts | 100° |
| 2026-05-07 16:33 | 59.84070 | 16.81668 | 13116 ft | 355 kts | 100° |
| 2026-05-07 16:34 | 59.83625 | 16.86461 | 12520 ft | 350 kts | 100° |
| 2026-05-07 16:34 | 59.83183 | 16.91179 | 11940 ft | 346 kts | 100° |
| 2026-05-07 16:34 | 59.82744 | 16.95854 | 11366 ft | 341 kts | 101° |
| 2026-05-07 16:34 | 59.82287 | 17.00436 | 10882 ft | 334 kts | 103° |
| 2026-05-07 16:35 | 59.81767 | 17.04814 | 10767 ft | 317 kts | 104° |
| 2026-05-07 16:35 | 59.81234 | 17.08981 | 10479 ft | 307 kts | 105° |
| 2026-05-07 16:35 | 59.80694 | 17.13062 | 10068 ft | 303 kts | 105° |
| 2026-05-07 16:35 | 59.80155 | 17.17075 | 9601 ft | 299 kts | 105° |
| 2026-05-07 16:36 | 59.79624 | 17.21045 | 9127 ft | 296 kts | 105° |
| 2026-05-07 16:36 | 59.79103 | 17.24965 | 8687 ft | 292 kts | 105° |
| 2026-05-07 16:36 | 59.78591 | 17.28841 | 8278 ft | 288 kts | 104° |
| 2026-05-07 16:36 | 59.78094 | 17.32608 | 7935 ft | 285 kts | 104° |
| 2026-05-07 16:37 | 59.77591 | 17.36407 | 7591 ft | 284 kts | 104° |
| 2026-05-07 16:37 | 59.77089 | 17.40194 | 7248 ft | 283 kts | 104° |
| 2026-05-07 16:37 | 59.76587 | 17.43956 | 6903 ft | 279 kts | 104° |
| 2026-05-07 16:37 | 59.76090 | 17.47675 | 6572 ft | 280 kts | 104° |
| 2026-05-07 16:38 | 59.75594 | 17.51401 | 6229 ft | 279 kts | 104° |
| 2026-05-07 16:38 | 59.75108 | 17.55111 | 5887 ft | 278 kts | 101° |
| 2026-05-07 16:38 | 59.74983 | 17.58901 | 5546 ft | 275 kts | 83° |
| 2026-05-07 16:38 | 59.75440 | 17.62548 | 5205 ft | 272 kts | 65° |
| 2026-05-07 16:39 | 59.76261 | 17.65923 | 4881 ft | 270 kts | 63° |
| 2026-05-07 16:39 | 59.77062 | 17.69203 | 4545 ft | 259 kts | 63° |
| 2026-05-07 16:39 | 59.77767 | 17.72402 | 4237 ft | 247 kts | 72° |
| 2026-05-07 16:39 | 59.78226 | 17.75586 | 3949 ft | 235 kts | 73° |
| 2026-05-07 16:40 | 59.78669 | 17.78637 | 3674 ft | 224 kts | 72° |
| 2026-05-07 16:40 | 59.79078 | 17.81570 | 3414 ft | 219 kts | 78° |
| 2026-05-07 16:40 | 59.79160 | 17.84552 | 3111 ft | 214 kts | 95° |
| 2026-05-07 16:40 | 59.78841 | 17.87382 | 2840 ft | 206 kts | 111° |
| 2026-05-07 16:41 | 59.78199 | 17.89850 | 2600 ft | 196 kts | 125° |
| 2026-05-07 16:41 | 59.77325 | 17.91835 | 2323 ft | 189 kts | 139° |
| 2026-05-07 16:41 | 59.76272 | 17.93331 | 2046 ft | 183 kts | 152° |
| 2026-05-07 16:41 | 59.75158 | 17.94260 | 1925 ft | 165 kts | 165° |
| 2026-05-07 16:42 | 59.74041 | 17.94718 | 1605 ft | 161 kts | 176° |
| 2026-05-07 16:42 | 59.72973 | 17.94683 | 1468 ft | 150 kts | 189° |
| 2026-05-07 16:42 | 59.71963 | 17.94281 | 1269 ft | 147 kts | 195° |
| 2026-05-07 16:42 | 59.70967 | 17.93890 | 1074 ft | 145 kts | 191° |
| 2026-05-07 16:43 | 59.69975 | 17.93573 | 845 ft | 142 kts | 189° |
| 2026-05-07 16:43 | 59.69009 | 17.93205 | 641 ft | 141 kts | 188° |
| 2026-05-07 16:43 | 59.68050 | 17.92888 | 458 ft | 139 kts | 185° |
| 2026-05-07 16:43 | 59.67103 | 17.92545 | 290 ft | 138 kts | 186° |
| 2026-05-07 16:44 | 59.66173 | 17.92219 | 149 ft | 125 kts | 189° |
| 2026-05-07 16:44 | 59.65475 | 17.91957 | 144 ft | 78 kts | 190° |
| 2026-05-07 16:44 | 59.65065 | 17.91807 | 142 ft | 53 kts | 191° |
| 2026-05-07 16:44 | 59.64771 | 17.91705 | 145 ft | 33 kts | 185° |
| 2026-05-07 16:45 | 59.64589 | 17.91755 | 142 ft | 19 kts | 163° |
| 2026-05-07 16:45 | 59.64499 | 17.91811 | 139 ft | 6 kts | 161° |
| 2026-05-07 16:45 | 59.64463 | 17.91857 | 139 ft | 5 kts | 134° |
| 2026-05-07 16:45 | 59.64453 | 17.91881 | 138 ft | 0 kts | 126° |
| 2026-05-07 16:46 | 59.64452 | 17.91884 | 138 ft | 2 kts | 125° |
| 2026-05-07 16:46 | 59.64459 | 17.91921 | 138 ft | 6 kts | 62° |
| 2026-05-07 16:46 | 59.64520 | 17.91971 | 138 ft | 13 kts | 11° |
| 2026-05-07 16:47 | 59.64623 | 17.92010 | 138 ft | 17 kts | 11° |
| 2026-05-07 16:47 | 59.64754 | 17.92058 | 138 ft | 21 kts | 10° |
| 2026-05-07 16:47 | 59.64912 | 17.92116 | 138 ft | 24 kts | 10° |
| 2026-05-07 16:47 | 59.65086 | 17.92180 | 138 ft | 25 kts | 11° |
| 2026-05-07 16:48 | 59.65248 | 17.92237 | 138 ft | 21 kts | 10° |
| 2026-05-07 16:48 | 59.65302 | 17.92345 | 138 ft | 12 kts | 95° |
| 2026-05-07 16:48 | 59.65276 | 17.92480 | 138 ft | 9 kts | 111° |
| 2026-05-07 16:48 | 59.65268 | 17.92519 | 138 ft | 0 kts | 111° |
| 2026-05-07 16:49 | 59.65266 | 17.92532 | 137 ft | 0 kts | 111° |
| 2026-05-07 16:49 | 59.65263 | 17.92543 | 137 ft | 2 kts | 111° |
| 2026-05-07 16:49 | 59.65267 | 17.92591 | 137 ft | 5 kts | 61° |
| 2026-05-07 16:49 | 59.65299 | 17.92650 | 137 ft | 8 kts | 40° |
| 2026-05-07 16:50 | 59.65327 | 17.92697 | 137 ft | 8 kts | 40° |
| 2026-05-07 16:50 | 59.65379 | 17.92783 | 137 ft | 8 kts | 69° |
| 2026-05-07 16:50 | 59.65397 | 17.92878 | 137 ft | 6 kts | 70° |
| 2026-05-07 16:50 | 59.65385 | 17.92934 | 137 ft | 0 kts | 125° |
| 2026-05-07 16:51 | 59.65378 | 17.92946 | 137 ft | 3 kts | 139° |
| 2026-05-07 16:51 | 59.65372 | 17.92955 | 137 ft | 0 kts | 139° |